.
WxDataArchive / Data Records for 2010-12-28
2010-12-27 December 2010 2010-12-29

Data Records for Tuesday, 28 December 2010

Time	Temp	Chill	HIndex	Humid	Dewpt	 Wind 	HiWind	WindDir	Rain 	Barom 
-----	----	-----	------	-----	-----	------	------	-------	-----	----- 
00:00	16.7	16.7	16.7	86	13.3	2	5	248	0.00	30.249 
00:05	16.7	16.7	16.7	86	13.3	2	5	248	0.00	30.249 
00:10	16.7	16.7	16.7	86	13.3	2	4	248	0.00	30.249 
00:15	16.7	16.7	16.7	87	13.5	1	2	248	0.00	30.249 
00:20	16.9	16.9	16.9	87	13.7	2	6	248	0.00	30.249 
00:25	16.7	16.7	16.7	86	13.3	2	5	248	0.00	30.249 
00:30	16.7	16.7	16.7	86	13.3	3	9	270	0.00	30.247 
00:35	16.7	16.7	16.7	86	13.3	2	7	225	0.00	30.247 
00:40	16.7	16.7	16.7	86	13.3	2	5	248	0.00	30.247 
00:45	16.7	16.7	16.7	87	13.5	1	3	248	0.00	30.241 
00:50	16.7	16.7	16.7	87	13.5	2	5	248	0.00	30.241 
00:55	16.7	16.7	16.7	87	13.5	2	9	248	0.00	30.241 
01:00	16.7	16.7	16.7	87	13.5	3	6	248	0.00	30.238 
01:05	16.9	16.9	16.9	87	13.7	3	6	248	0.00	30.238 
01:10	16.9	16.9	16.9	87	13.7	3	6	248	0.00	30.238 
01:15	17.0	17.0	17.0	87	13.8	2	5	225	0.00	30.243 
01:20	17.0	17.0	17.0	87	13.8	1	3	248	0.00	30.243 
01:25	17.2	17.2	17.2	87	14.0	2	7	248	0.00	30.243 
01:30	17.3	17.3	17.3	87	14.1	2	6	248	0.00	30.240 
01:35	17.3	17.3	17.3	87	14.1	2	5	225	0.00	30.240 
01:40	17.5	17.5	17.5	87	14.3	2	6	248	0.00	30.240 
01:45	17.7	17.7	17.7	87	14.5	2	5	248	0.00	30.232 
01:50	17.7	17.7	17.7	87	14.5	2	7	248	0.00	30.232 
01:55	17.8	17.8	17.8	87	14.6	2	7	248	0.00	30.232 
02:00	18.0	18.0	18.0	87	14.8	3	9	248	0.00	30.241 
02:05	18.0	18.0	18.0	87	14.8	2	4	248	0.00	30.241 
02:10	18.1	18.1	18.1	87	14.9	2	5	248	0.00	30.241 
02:15	18.1	18.1	18.1	87	14.9	2	5	248	0.00	30.233 
02:20	18.3	18.3	18.3	87	15.1	2	6	248	0.00	30.233 
02:25	18.1	18.1	18.1	87	14.9	2	4	248	0.00	30.233 
02:30	18.1	18.1	18.1	87	14.9	2	3	248	0.00	30.237 
02:35	18.1	12.0	18.1	86	14.6	4	9	248	0.00	30.237 
02:40	18.3	18.3	18.3	86	14.8	3	6	248	0.00	30.237 
02:45	18.3	18.3	18.3	86	14.8	2	4	248	0.00	30.238 
02:50	18.4	18.4	18.4	86	14.9	2	5	248	0.00	30.238 
02:55	18.4	18.4	18.4	86	14.9	1	3	248	0.00	30.238 
03:00	18.6	18.6	18.6	86	15.1	1	4	248	0.00	30.243 
03:05	18.6	18.6	18.6	86	15.1	2	7	248	0.00	30.243 
03:10	18.6	18.6	18.6	86	15.1	3	7	248	0.00	30.243 
03:15	18.6	12.6	18.6	86	15.1	4	9	248	0.00	30.246 
03:20	18.6	18.6	18.6	86	15.1	3	6	248	0.00	30.246 
03:25	18.6	18.6	18.6	86	15.1	2	5	248	0.00	30.246 
03:30	18.6	18.6	18.6	86	15.1	2	4	248	0.00	30.249 
03:35	18.6	18.6	18.6	86	15.1	1	4	248	0.00	30.249 
03:40	18.6	18.6	18.6	85	14.9	2	6	248	0.00	30.249 
03:45	18.6	18.6	18.6	85	14.9	2	5	270	0.00	30.246 
03:50	18.6	18.6	18.6	85	14.9	1	3	248	0.00	30.246 
03:55	18.6	18.6	18.6	85	14.9	2	5	248	0.00	30.246 
04:00	18.4	18.4	18.4	85	14.7	2	4	225	0.00	30.244 
04:05	18.4	18.4	18.4	85	14.7	2	6	248	0.00	30.244 
04:10	18.4	18.4	18.4	85	14.7	1	4	225	0.00	30.244 
04:15	18.4	18.4	18.4	85	14.7	1	4	225	0.00	30.234 
04:20	18.4	18.4	18.4	85	14.7	1	4	248	0.00	30.234 
04:25	18.4	18.4	18.4	85	14.7	3	7	248	0.00	30.234 
04:30	18.3	18.3	18.3	85	14.6	1	4	248	0.00	30.232 
04:35	18.3	18.3	18.3	85	14.6	2	5	248	0.00	30.232 
04:40	18.4	18.4	18.4	85	14.7	1	4	248	0.00	30.232 
04:45	18.4	18.4	18.4	85	14.7	2	5	248	0.00	30.231 
04:50	18.4	18.4	18.4	85	14.7	3	9	248	0.00	30.231 
04:55	18.4	18.4	18.4	84	14.4	2	5	248	0.00	30.231 
05:00	18.3	18.3	18.3	84	14.3	1	4	248	0.00	30.229 
05:05	18.3	18.3	18.3	84	14.3	2	4	248	0.00	30.229 
05:10	18.4	18.4	18.4	84	14.4	2	4	248	0.00	30.229 
05:15	18.4	18.4	18.4	84	14.4	1	4	248	0.00	30.230 
05:20	18.4	18.4	18.4	84	14.4	1	3	248	0.00	30.230 
05:25	18.4	18.4	18.4	84	14.4	3	8	248	0.00	30.230 
05:30	18.4	18.4	18.4	84	14.4	2	7	248	0.00	30.231 
05:35	18.4	18.4	18.4	84	14.4	1	6	248	0.00	30.231 
05:40	18.3	18.3	18.3	84	14.3	1	3	248	0.00	30.231 
05:45	18.3	18.3	18.3	84	14.3	1	3	248	0.00	30.219 
05:50	18.3	18.3	18.3	84	14.3	2	4	248	0.00	30.219 
05:55	18.1	18.1	18.1	84	14.1	1	5	248	0.00	30.219 
06:00	18.1	18.1	18.1	84	14.1	1	4	248	0.00	30.219 
06:05	18.0	18.0	18.0	84	14.0	1	4	248	0.00	30.219 
06:10	18.1	18.1	18.1	84	14.1	2	5	225	0.00	30.219 
06:15	18.1	18.1	18.1	84	14.1	2	4	225	0.00	30.214 
06:20	18.3	18.3	18.3	84	14.3	2	4	248	0.00	30.214 
06:25	18.3	18.3	18.3	84	14.3	1	3	248	0.00	30.214 
06:30	18.4	18.4	18.4	84	14.4	1	4	248	0.00	30.216 
06:35	18.4	18.4	18.4	84	14.4	1	3	248	0.00	30.216 
06:40	18.4	18.4	18.4	85	14.7	2	9	248	0.00	30.216 
06:45	18.4	18.4	18.4	85	14.7	2	5	248	0.00	30.215 
06:50	18.4	18.4	18.4	84	14.4	2	7	225	0.00	30.215 
06:55	18.3	18.3	18.3	84	14.3	3	7	248	0.00	30.215 
07:00	18.1	18.1	18.1	84	14.1	2	7	248	0.00	30.217 
07:05	18.1	18.1	18.1	84	14.1	1	5	225	0.00	30.217 
07:10	18.1	18.1	18.1	84	14.1	2	4	248	0.00	30.217 
07:15	18.1	18.1	18.1	84	14.1	1	6	248	0.00	30.216 
07:20	18.1	18.1	18.1	84	14.1	2	4	225	0.00	30.216 
07:25	18.1	18.1	18.1	84	14.1	1	3	225	0.00	30.216 
07:30	18.1	18.1	18.1	84	14.1	1	4	225	0.00	30.212 
07:35	18.1	18.1	18.1	84	14.1	1	3	225	0.00	30.212 
07:40	18.3	18.3	18.3	85	14.6	1	4	248	0.00	30.212 
07:45	18.3	18.3	18.3	85	14.6	1	3	248	0.00	30.214 
07:50	18.3	18.3	18.3	85	14.6	2	7	248	0.00	30.214 
07:55	18.3	18.3	18.3	84	14.3	1	6	270	0.00	30.214 
08:00	18.1	18.1	18.1	84	14.1	1	6	248	0.00	30.209 
08:05	18.1	18.1	18.1	85	14.4	1	4	248	0.00	30.209 
08:10	18.3	18.3	18.3	85	14.6	1	4	270	0.00	30.209 
08:15	18.3	18.3	18.3	85	14.6	1	4	248	0.00	30.208 
08:20	18.3	18.3	18.3	85	14.6	2	5	248	0.00	30.208 
08:25	18.3	18.3	18.3	85	14.6	1	4	248	0.00	30.208 
08:30	18.3	18.3	18.3	85	14.6	2	8	248	0.00	30.209 
08:35	18.3	18.3	18.3	85	14.6	2	6	248	0.00	30.209 
08:40	18.3	18.3	18.3	84	14.3	1	6	248	0.00	30.209 
08:45	18.3	18.3	18.3	84	14.3	1	4	248	0.00	30.208 
08:50	18.3	18.3	18.3	85	14.6	1	5	248	0.00	30.208 
08:55	18.3	18.3	18.3	85	14.6	1	4	248	0.00	30.208 
09:00	18.4	18.4	18.4	85	14.7	2	5	248	0.00	30.209 
09:05	18.6	18.6	18.6	85	14.9	1	3	248	0.00	30.209 
09:10	18.8	18.8	18.8	85	15.1	2	6	248	0.00	30.209 
09:15	18.9	18.9	18.9	85	15.2	2	6	248	0.00	30.209 
09:20	19.1	19.1	19.1	84	15.1	2	5	248	0.00	30.209 
09:25	19.4	19.4	19.4	84	15.4	2	5	248	0.00	30.209 
09:30	19.5	19.5	19.5	84	15.5	3	9	248	0.00	30.209 
09:35	19.7	19.7	19.7	83	15.4	2	6	248	0.00	30.209 
09:40	19.7	19.7	19.7	83	15.4	2	9	225	0.00	30.209 
09:45	19.7	19.7	19.7	83	15.4	2	6	248	0.00	30.209 
09:50	19.9	19.9	19.9	83	15.6	1	4	248	0.00	30.209 
09:55	20.0	20.0	20.0	83	15.7	2	6	248	0.00	30.209 
10:00	20.2	20.2	20.2	82	15.6	2	5	248	0.00	30.208 
10:05	20.3	20.3	20.3	82	15.7	3	10	248	0.00	30.208 
10:10	20.6	20.6	20.6	82	16.0	2	7	248	0.00	30.208 
10:15	20.8	20.8	20.8	81	15.9	3	9	248	0.00	30.208 
10:20	20.8	20.8	20.8	81	15.9	3	7	270	0.00	30.208 
10:25	21.0	21.0	21.0	81	16.1	2	7	248	0.00	30.208 
10:30	21.3	21.3	21.3	77	15.2	2	7	248	0.00	30.208 
10:35	21.4	21.4	21.4	80	16.2	2	5	248	0.00	30.208 
10:40	21.6	21.6	21.6	80	16.4	2	5	248	0.00	30.208 
10:45	21.9	21.9	21.9	79	16.4	2	7	248	0.00	30.206 
10:50	22.1	22.1	22.1	79	16.6	2	6	248	0.00	30.206 
10:55	22.2	22.2	22.2	79	16.7	2	6	248	0.00	30.206 
11:00	22.4	22.4	22.4	78	16.6	2	5	248	0.00	30.199 
11:05	22.4	22.4	22.4	78	16.6	3	6	248	0.00	30.199 
11:10	22.5	22.5	22.5	78	16.7	2	7	225	0.00	30.199 
11:15	22.7	22.7	22.7	78	16.9	2	6	270	0.00	30.187 
11:20	23.0	23.0	23.0	78	17.2	2	5	248	0.00	30.187 
11:25	23.2	23.2	23.2	78	17.4	3	10	248	0.00	30.187 
11:30	23.3	23.3	23.3	77	17.2	3	9	225	0.00	30.173 
11:35	23.8	23.8	23.8	77	17.7	2	5	248	0.00	30.173 
11:40	24.1	24.1	24.1	77	18.0	2	5	248	0.00	30.173 
11:45	24.5	24.5	24.5	76	18.0	2	6	248	0.00	30.171 
11:50	24.8	24.8	24.8	75	18.0	3	10	248	0.00	30.171 
11:55	25.0	25.0	25.0	75	18.2	3	9	248	0.00	30.171 
12:00	25.0	20.0	25.0	74	17.9	4	12	248	0.00	30.165 
12:05	25.1	25.1	25.1	74	18.0	3	7	248	0.00	30.165 
12:10	25.4	25.4	25.4	74	18.3	3	7	248	0.00	30.165 
12:15	25.6	25.6	25.6	74	18.5	3	10	248	0.00	30.156 
12:20	25.7	25.7	25.7	73	18.3	3	7	248	0.00	30.156 
12:25	25.8	25.8	25.8	73	18.4	3	6	248	0.00	30.156 
12:30	26.1	26.1	26.1	73	18.7	2	6	248	0.00	30.154 
12:35	26.3	21.5	26.3	73	18.8	4	9	248	0.00	30.154 
12:40	26.4	26.4	26.4	73	18.9	3	6	248	0.00	30.154 
12:45	26.6	26.6	26.6	72	18.8	3	8	225	0.00	30.148 
12:50	26.7	26.7	26.7	72	18.9	3	7	225	0.00	30.148 
12:55	26.9	26.9	26.9	72	19.1	3	9	248	0.00	30.148 
13:00	27.2	27.2	27.2	71	19.1	2	6	248	0.00	30.144 
13:05	27.3	27.3	27.3	71	19.2	2	4	225	0.00	30.144 
13:10	27.5	27.5	27.5	71	19.4	3	6	248	0.00	30.144 
13:15	27.6	27.6	27.6	71	19.4	2	5	248	0.00	30.135 
13:20	27.9	27.9	27.9	70	19.4	2	5	248	0.00	30.135 
13:25	28.1	28.1	28.1	70	19.6	3	7	248	0.00	30.135 
13:30	28.2	28.2	28.2	70	19.7	2	4	248	0.00	30.130 
13:35	28.4	28.4	28.4	70	19.9	2	4	248	0.00	30.130 
13:40	28.4	28.4	28.4	70	19.9	2	6	225	0.00	30.130 
13:45	28.8	28.8	28.8	70	20.3	2	6	248	0.00	30.127 
13:50	29.7	29.7	29.7	69	20.8	2	7	248	0.00	30.127 
13:55	30.3	30.3	30.3	68	21.0	2	7	225	0.00	30.127 
14:00	30.7	26.6	30.7	66	20.7	4	9	248	0.00	30.117 
14:05	30.9	26.8	30.9	65	20.5	4	10	248	0.00	30.117 
14:10	30.9	30.9	30.9	65	20.5	3	9	248	0.00	30.117 
14:15	31.3	31.3	31.3	65	20.9	3	7	248	0.00	30.114 
14:20	31.6	31.6	31.6	64	20.8	3	9	248	0.00	30.114 
14:25	31.9	31.9	31.9	64	21.1	3	9	248	0.00	30.114 
14:30	31.9	31.9	31.9	64	21.1	2	7	248	0.00	30.100 
14:35	31.9	31.9	31.9	63	20.8	3	6	248	0.00	30.100 
14:40	31.9	28.0	31.9	63	20.8	4	10	248	0.00	30.100 
14:45	31.8	27.8	31.8	64	21.0	4	11	248	0.00	30.100 
14:50	31.6	31.6	31.6	64	20.8	2	7	248	0.00	30.100 
14:55	31.6	31.6	31.6	65	21.2	2	5	248	0.00	30.100 
15:00	31.5	31.5	31.5	64	20.7	3	10	248	0.00	30.098 
15:05	31.5	31.5	31.5	64	20.7	2	5	248	0.00	30.098 
15:10	31.3	31.3	31.3	65	20.9	2	5	248	0.00	30.098 
15:15	31.5	31.5	31.5	65	21.1	1	3	248	0.00	30.098 
15:20	31.3	31.3	31.3	65	20.9	2	6	248	0.00	30.098 
15:25	31.0	31.0	31.0	65	20.6	2	7	248	0.00	30.098 
15:30	30.9	30.9	30.9	66	20.9	2	7	248	0.00	30.101 
15:35	30.9	30.9	30.9	66	20.9	2	4	248	0.00	30.101 
15:40	30.9	30.9	30.9	66	20.9	2	6	248	0.00	30.101 
15:45	30.9	30.9	30.9	67	21.3	2	5	248	0.00	30.103 
15:50	31.0	31.0	31.0	66	21.0	2	6	248	0.00	30.103 
15:55	31.0	31.0	31.0	66	21.0	2	5	248	0.00	30.103 
16:00	30.7	30.7	30.7	66	20.7	2	6	248	0.00	30.105 
16:05	30.4	30.4	30.4	67	20.8	1	4	248	0.00	30.105 
16:10	30.3	30.3	30.3	67	20.7	2	5	248	0.00	30.105 
16:15	30.1	30.1	30.1	68	20.8	2	6	248	0.00	30.103 
16:20	30.0	30.0	30.0	68	20.7	2	6	248	0.00	30.103 
16:25	29.7	29.7	29.7	68	20.5	2	5	248	0.00	30.103 
16:30	29.5	29.5	29.5	68	20.3	3	7	248	0.00	30.102 
16:35	29.4	29.4	29.4	69	20.5	2	7	248	0.00	30.102 
16:40	29.3	29.3	29.3	69	20.4	3	7	225	0.00	30.102 
16:45	29.1	29.1	29.1	70	20.6	1	4	225	0.00	30.103 
16:50	28.8	28.8	28.8	70	20.3	1	4	248	0.00	30.103 
16:55	28.7	28.7	28.7	71	20.5	2	5	248	0.00	30.103 
17:00	28.4	28.4	28.4	72	20.5	2	7	248	0.00	30.104 
17:05	28.2	28.2	28.2	72	20.4	3	6	248	0.00	30.104 
17:10	28.1	28.1	28.1	73	20.6	2	4	248	0.00	30.104 
17:15	27.9	27.9	27.9	73	20.4	2	5	248	0.00	30.109 
17:20	27.8	27.8	27.8	74	20.6	2	5	248	0.00	30.109 
17:25	27.8	27.8	27.8	74	20.6	2	4	248	0.00	30.109 
17:30	27.6	27.6	27.6	74	20.4	1	5	248	0.00	30.109 
17:35	27.6	27.6	27.6	74	20.4	2	4	225	0.00	30.109 
17:40	27.5	27.5	27.5	74	20.3	2	7	248	0.00	30.109 
17:45	27.3	27.3	27.3	75	20.4	2	5	248	0.00	30.110 
17:50	27.2	27.2	27.2	75	20.3	3	7	248	0.00	30.110 
17:55	27.0	27.0	27.0	75	20.2	2	7	248	0.00	30.110 
18:00	27.0	27.0	27.0	75	20.2	2	6	248	0.00	30.113 
18:05	26.9	26.9	26.9	76	20.4	2	6	248	0.00	30.113 
18:10	26.7	26.7	26.7	76	20.2	2	7	248	0.00	30.113 
18:15	26.7	26.7	26.7	76	20.2	2	6	248	0.00	30.116 
18:20	26.6	26.6	26.6	76	20.1	2	6	248	0.00	30.116 
18:25	26.4	26.4	26.4	76	19.9	2	6	248	0.00	30.116 
18:30	26.4	26.4	26.4	76	19.9	1	4	248	0.00	30.118 
18:35	26.3	26.3	26.3	77	20.1	1	4	248	0.00	30.118 
18:40	26.1	26.1	26.1	77	19.9	1	4	248	0.00	30.118 
18:45	26.0	26.0	26.0	77	19.8	0	2	248	0.00	30.121 
18:50	26.0	26.0	26.0	77	19.8	1	3	248	0.00	30.121 
18:55	25.8	25.8	25.8	77	19.6	1	3	248	0.00	30.121 
19:00	25.7	25.7	25.7	78	19.8	1	3	248	0.00	30.122 
19:05	25.7	25.7	25.7	78	19.8	1	4	248	0.00	30.122 
19:10	25.7	25.7	25.7	78	19.8	1	4	225	0.00	30.122 
19:15	25.7	25.7	25.7	78	19.8	1	4	270	0.00	30.122 
19:20	25.6	25.6	25.6	79	20.0	1	4	248	0.00	30.122 
19:25	25.6	25.6	25.6	79	20.0	1	4	248	0.00	30.122 
19:30	25.6	25.6	25.6	79	20.0	2	5	248	0.00	30.128 
19:35	25.7	25.7	25.7	79	20.1	2	5	248	0.00	30.128 
19:40	25.6	25.6	25.6	79	20.0	1	6	248	0.00	30.128 
19:45	25.6	25.6	25.6	79	20.0	1	6	248	0.00	30.131 
19:50	25.6	25.6	25.6	79	20.0	1	4	248	0.00	30.131 
19:55	25.4	25.4	25.4	79	19.8	1	4	248	0.00	30.131 
20:00	25.4	25.4	25.4	79	19.8	1	3	248	0.00	30.136 
20:05	25.3	25.3	25.3	79	19.7	1	3	248	0.00	30.136 
20:10	25.3	25.3	25.3	80	20.0	1	4	248	0.00	30.136 
20:15	25.3	25.3	25.3	80	20.0	1	5	225	0.00	30.134 
20:20	25.3	25.3	25.3	80	20.0	1	5	248	0.00	30.134 
20:25	25.3	25.3	25.3	80	20.0	1	6	225	0.00	30.134 
20:30	25.3	25.3	25.3	80	20.0	2	5	248	0.00	30.135 
20:35	25.4	25.4	25.4	80	20.1	1	4	248	0.00	30.135 
20:40	25.4	25.4	25.4	80	20.1	1	4	248	0.00	30.135 
20:45	25.4	25.4	25.4	80	20.1	1	5	248	0.00	30.137 
20:50	25.4	25.4	25.4	80	20.1	1	6	248	0.00	30.137 
20:55	25.4	25.4	25.4	80	20.1	1	6	248	0.00	30.137 
21:00	25.4	25.4	25.4	80	20.1	2	5	248	0.00	30.136 
21:05	25.4	25.4	25.4	80	20.1	2	5	248	0.00	30.136 
21:10	25.4	25.4	25.4	80	20.1	2	5	248	0.00	30.136 
21:15	25.4	25.4	25.4	80	20.1	1	4	248	0.00	30.128 
21:20	25.4	25.4	25.4	80	20.1	2	7	248	0.00	30.128 
21:25	25.4	25.4	25.4	80	20.1	1	4	248	0.00	30.128 
21:30	25.4	25.4	25.4	80	20.1	2	5	248	0.00	30.129 
21:35	25.3	25.3	25.3	80	20.0	2	6	248	0.00	30.129 
21:40	25.3	25.3	25.3	80	20.0	2	7	248	0.00	30.129 
21:45	25.3	25.3	25.3	80	20.0	2	7	248	0.00	30.130 
21:50	25.1	25.1	25.1	80	19.8	2	4	248	0.00	30.130 
21:55	25.1	25.1	25.1	80	19.8	2	7	248	0.00	30.130 
22:00	25.1	25.1	25.1	80	19.8	2	6	225	0.00	30.130 
22:05	25.1	25.1	25.1	80	19.8	1	3	270	0.00	30.130 
22:10	25.0	25.0	25.0	81	20.0	1	5	248	0.00	30.130 
22:15	25.0	25.0	25.0	81	20.0	2	4	248	0.00	30.128 
22:20	25.1	25.1	25.1	81	20.1	2	10	248	0.00	30.128 
22:25	25.1	25.1	25.1	81	20.1	2	6	248	0.00	30.128 
22:30	25.1	25.1	25.1	81	20.1	2	5	248	0.00	30.121 
22:35	25.1	25.1	25.1	81	20.1	1	5	270	0.00	30.121 
22:40	25.1	25.1	25.1	81	20.1	2	6	248	0.00	30.121 
22:45	25.1	25.1	25.1	81	20.1	2	5	248	0.00	30.120 
22:50	25.3	25.3	25.3	81	20.3	2	7	248	0.00	30.120 
22:55	25.3	25.3	25.3	81	20.3	2	6	248	0.00	30.120 
23:00	25.3	25.3	25.3	81	20.3	2	6	248	0.00	30.122 
23:05	25.3	25.3	25.3	81	20.3	2	7	248	0.00	30.122 
23:10	25.3	25.3	25.3	81	20.3	2	4	225	0.00	30.122 
23:15	25.3	25.3	25.3	81	20.3	2	5	248	0.00	30.118 
23:20	25.3	25.3	25.3	81	20.3	3	5	248	0.00	30.118 
23:25	25.4	25.4	25.4	81	20.4	2	6	248	0.00	30.118 
23:30	25.4	25.4	25.4	81	20.4	1	4	270	0.00	30.120 
23:35	25.4	25.4	25.4	81	20.4	2	4	248	0.00	30.120 
23:40	25.4	25.4	25.4	81	20.4	2	6	248	0.00	30.120 
23:45	25.4	25.4	25.4	81	20.4	2	6	248	0.00	30.120 
23:50	25.3	25.3	25.3	81	20.3	2	6	248	0.00	30.120 
23:55	25.3	25.3	25.3	81	20.3	2	5	248	0.00	30.120 

CoCoRaHS
IN-AL-39
A2 Web Hosting
Creative Commons License
GoDaddy
search engine by freefind advanced

loaded 2018-11-17 00:24:03 • last modified 2010-11-18 10:43:29
Privacy PolicyDisclaimer
• wx.awcolley.com is powered by PmWiki v.2002016 •
• all content (unless otherwise noted) © 2018 A W Colley